sensor_id;sensor_type;location;lat;lon;timestamp;P1;durP1;ratioP1;P2;durP2;ratioP2
19727;SDS011;10015;52.530;13.390;2023-02-01T00:00:21;15.90;;;2.93;;
19727;SDS011;10015;52.530;13.390;2023-02-01T05:16:25;12.73;;;2.27;;
19727;SDS011;10015;52.530;13.390;2023-02-01T05:18:52;16.07;;;2.70;;
19727;SDS011;10015;52.530;13.390;2023-02-01T05:21:22;16.67;;;2.87;;
19727;SDS011;10015;52.530;13.390;2023-02-01T05:23:48;17.80;;;3.23;;
19727;SDS011;10015;52.530;13.390;2023-02-01T05:26:33;12.70;;;2.50;;
19727;SDS011;10015;52.530;13.390;2023-02-01T05:28:59;9.30;;;2.10;;
19727;SDS011;10015;52.530;13.390;2023-02-01T05:31:25;25.13;;;2.30;;
19727;SDS011;10015;52.530;13.390;2023-02-01T05:33:51;16.03;;;2.43;;
19727;SDS011;10015;52.530;13.390;2023-02-01T05:36:17;10.63;;;2.80;;
19727;SDS011;10015;52.530;13.390;2023-02-01T05:38:43;17.13;;;2.97;;
19727;SDS011;10015;52.530;13.390;2023-02-01T05:41:09;19.90;;;2.93;;
19727;SDS011;10015;52.530;13.390;2023-02-01T05:43:35;20.33;;;2.50;;
19727;SDS011;10015;52.530;13.390;2023-02-01T05:46:01;12.23;;;2.33;;
19727;SDS011;10015;52.530;13.390;2023-02-01T05:48:27;14.90;;;2.13;;
19727;SDS011;10015;52.530;13.390;2023-02-01T05:50:53;17.03;;;2.30;;
19727;SDS011;10015;52.530;13.390;2023-02-01T05:53:19;14.03;;;2.33;;
19727;SDS011;10015;52.530;13.390;2023-02-01T05:55:45;13.60;;;2.00;;
19727;SDS011;10015;52.530;13.390;2023-02-01T05:58:11;13.97;;;2.23;;
19727;SDS011;10015;52.530;13.390;2023-02-01T06:00:38;9.67;;;2.20;;
19727;SDS011;10015;52.530;13.390;2023-02-01T06:03:04;15.70;;;2.83;;
19727;SDS011;10015;52.530;13.390;2023-02-01T06:05:30;17.13;;;3.00;;
19727;SDS011;10015;52.530;13.390;2023-02-01T06:07:58;18.97;;;2.83;;
19727;SDS011;10015;52.530;13.390;2023-02-01T06:10:24;12.90;;;2.80;;
19727;SDS011;10015;52.530;13.390;2023-02-01T06:12:50;17.33;;;2.57;;
19727;SDS011;10015;52.530;13.390;2023-02-01T06:15:16;17.83;;;2.40;;
19727;SDS011;10015;52.530;13.390;2023-02-01T06:17:46;14.57;;;2.70;;
19727;SDS011;10015;52.530;13.390;2023-02-01T06:20:12;11.93;;;2.70;;
19727;SDS011;10015;52.530;13.390;2023-02-01T06:22:40;13.67;;;2.43;;
19727;SDS011;10015;52.530;13.390;2023-02-01T06:25:08;14.30;;;2.87;;
19727;SDS011;10015;52.530;13.390;2023-02-01T06:27:35;11.40;;;2.30;;
19727;SDS011;10015;52.530;13.390;2023-02-01T06:30:02;13.27;;;2.83;;
19727;SDS011;10015;52.530;13.390;2023-02-01T06:32:29;15.67;;;2.70;;
19727;SDS011;10015;52.530;13.390;2023-02-01T06:34:55;17.10;;;2.80;;
19727;SDS011;10015;52.530;13.390;2023-02-01T06:37:22;14.27;;;2.47;;
19727;SDS011;10015;52.530;13.390;2023-02-01T06:39:50;14.43;;;2.60;;
19727;SDS011;10015;52.530;13.390;2023-02-01T06:42:16;16.70;;;2.60;;
19727;SDS011;10015;52.530;13.390;2023-02-01T06:44:42;15.10;;;2.40;;
19727;SDS011;10015;52.530;13.390;2023-02-01T06:47:08;15.50;;;3.20;;
19727;SDS011;10015;52.530;13.390;2023-02-01T06:49:35;17.43;;;3.00;;
19727;SDS011;10015;52.530;13.390;2023-02-01T06:52:00;7.17;;;2.23;;
19727;SDS011;10015;52.530;13.390;2023-02-01T06:54:27;16.90;;;2.63;;
19727;SDS011;10015;52.530;13.390;2023-02-01T06:56:53;12.73;;;2.67;;
19727;SDS011;10015;52.530;13.390;2023-02-01T06:59:19;15.37;;;2.83;;
19727;SDS011;10015;52.530;13.390;2023-02-01T07:01:45;18.40;;;2.90;;
19727;SDS011;10015;52.530;13.390;2023-02-01T07:04:11;10.57;;;2.10;;
19727;SDS011;10015;52.530;13.390;2023-02-01T07:06:38;15.67;;;2.47;;
19727;SDS011;10015;52.530;13.390;2023-02-01T07:09:05;17.80;;;2.30;;
19727;SDS011;10015;52.530;13.390;2023-02-01T07:11:31;13.33;;;2.27;;
19727;SDS011;10015;52.530;13.390;2023-02-01T07:13:58;17.20;;;2.60;;
19727;SDS011;10015;52.530;13.390;2023-02-01T07:16:24;13.03;;;3.27;;
19727;SDS011;10015;52.530;13.390;2023-02-01T07:18:51;15.03;;;3.00;;
19727;SDS011;10015;52.530;13.390;2023-02-01T07:21:18;7.87;;;2.13;;
19727;SDS011;10015;52.530;13.390;2023-02-01T07:23:44;13.23;;;2.70;;
19727;SDS011;10015;52.530;13.390;2023-02-01T07:26:12;11.33;;;2.80;;
19727;SDS011;10015;52.530;13.390;2023-02-01T07:28:40;12.23;;;2.73;;
19727;SDS011;10015;52.530;13.390;2023-02-01T07:31:07;9.43;;;2.40;;
19727;SDS011;10015;52.530;13.390;2023-02-01T07:33:36;12.97;;;2.10;;
19727;SDS011;10015;52.530;13.390;2023-02-01T07:36:03;12.53;;;2.47;;
19727;SDS011;10015;52.530;13.390;2023-02-01T07:38:31;14.57;;;2.50;;
19727;SDS011;10015;52.530;13.390;2023-02-01T07:40:57;18.90;;;2.77;;
19727;SDS011;10015;52.530;13.390;2023-02-01T07:43:25;10.60;;;2.53;;
19727;SDS011;10015;52.530;13.390;2023-02-01T07:45:52;15.87;;;2.67;;
19727;SDS011;10015;52.530;13.390;2023-02-01T07:48:19;14.60;;;3.17;;
19727;SDS011;10015;52.530;13.390;2023-02-01T07:50:46;13.80;;;3.37;;
19727;SDS011;10015;52.530;13.390;2023-02-01T07:53:13;15.97;;;3.63;;
19727;SDS011;10015;52.530;13.390;2023-02-01T07:55:40;19.30;;;2.90;;
19727;SDS011;10015;52.530;13.390;2023-02-01T07:58:07;11.90;;;2.43;;
19727;SDS011;10015;52.530;13.390;2023-02-01T08:00:33;12.77;;;2.67;;
19727;SDS011;10015;52.530;13.390;2023-02-01T08:03:18;13.07;;;2.27;;
19727;SDS011;10015;52.530;13.390;2023-02-01T08:05:43;11.37;;;2.50;;
19727;SDS011;10015;52.530;13.390;2023-02-01T08:08:09;12.07;;;2.53;;
19727;SDS011;10015;52.530;13.390;2023-02-01T08:10:35;12.27;;;2.83;;
19727;SDS011;10015;52.530;13.390;2023-02-01T08:13:02;10.93;;;2.63;;
19727;SDS011;10015;52.530;13.390;2023-02-01T08:15:28;8.57;;;2.53;;
19727;SDS011;10015;52.530;13.390;2023-02-01T08:17:55;10.60;;;2.40;;
19727;SDS011;10015;52.530;13.390;2023-02-01T08:20:22;12.00;;;2.67;;
19727;SDS011;10015;52.530;13.390;2023-02-01T08:22:49;9.63;;;2.40;;
19727;SDS011;10015;52.530;13.390;2023-02-01T08:25:15;8.57;;;2.30;;
19727;SDS011;10015;52.530;13.390;2023-02-01T08:27:43;10.83;;;2.90;;
19727;SDS011;10015;52.530;13.390;2023-02-01T08:30:10;7.20;;;2.20;;
19727;SDS011;10015;52.530;13.390;2023-02-01T08:32:36;11.77;;;2.80;;
19727;SDS011;10015;52.530;13.390;2023-02-01T08:35:03;7.43;;;2.00;;
19727;SDS011;10015;52.530;13.390;2023-02-01T08:37:29;11.83;;;2.83;;
19727;SDS011;10015;52.530;13.390;2023-02-01T08:39:56;9.20;;;2.03;;
19727;SDS011;10015;52.530;13.390;2023-02-01T08:42:22;12.10;;;2.60;;
19727;SDS011;10015;52.530;13.390;2023-02-01T08:45:07;10.27;;;2.23;;
19727;SDS011;10015;52.530;13.390;2023-02-01T08:47:33;8.77;;;2.33;;
19727;SDS011;10015;52.530;13.390;2023-02-01T08:50:00;7.67;;;2.27;;
19727;SDS011;10015;52.530;13.390;2023-02-01T08:52:27;5.77;;;2.40;;
19727;SDS011;10015;52.530;13.390;2023-02-01T08:54:52;4.00;;;2.20;;
19727;SDS011;10015;52.530;13.390;2023-02-01T08:57:19;7.20;;;2.60;;
19727;SDS011;10015;52.530;13.390;2023-02-01T08:59:45;7.67;;;2.60;;
19727;SDS011;10015;52.530;13.390;2023-02-01T09:02:12;8.50;;;3.20;;
19727;SDS011;10015;52.530;13.390;2023-02-01T09:04:42;10.00;;;2.77;;
19727;SDS011;10015;52.530;13.390;2023-02-01T09:07:08;8.73;;;2.40;;
19727;SDS011;10015;52.530;13.390;2023-02-01T09:09:35;4.67;;;2.17;;
19727;SDS011;10015;52.530;13.390;2023-02-01T09:12:02;4.67;;;1.90;;
19727;SDS011;10015;52.530;13.390;2023-02-01T09:14:29;9.57;;;2.63;;
19727;SDS011;10015;52.530;13.390;2023-02-01T09:16:55;8.07;;;2.90;;
19727;SDS011;10015;52.530;13.390;2023-02-01T09:19:22;5.40;;;2.33;;
19727;SDS011;10015;52.530;13.390;2023-02-01T09:21:48;4.37;;;1.63;;
19727;SDS011;10015;52.530;13.390;2023-02-01T09:24:14;5.87;;;1.80;;
19727;SDS011;10015;52.530;13.390;2023-02-01T09:26:41;4.00;;;1.60;;
19727;SDS011;10015;52.530;13.390;2023-02-01T09:29:07;12.37;;;4.77;;
19727;SDS011;10015;52.530;13.390;2023-02-01T09:31:36;5.53;;;2.67;;
19727;SDS011;10015;52.530;13.390;2023-02-01T09:34:03;10.97;;;2.60;;
19727;SDS011;10015;52.530;13.390;2023-02-01T09:36:31;3.00;;;1.50;;
19727;SDS011;10015;52.530;13.390;2023-02-01T09:38:57;11.53;;;3.97;;
19727;SDS011;10015;52.530;13.390;2023-02-01T09:44:35;6.30;;;1.57;;
19727;SDS011;10015;52.530;13.390;2023-02-01T09:47:13;3.43;;;1.10;;
19727;SDS011;10015;52.530;13.390;2023-02-01T09:49:45;3.70;;;1.03;;
19727;SDS011;10015;52.530;13.390;2023-02-01T09:52:19;5.40;;;1.70;;
19727;SDS011;10015;52.530;13.390;2023-02-01T09:55:07;4.00;;;1.27;;
19727;SDS011;10015;52.530;13.390;2023-02-01T09:57:42;3.80;;;1.10;;
19727;SDS011;10015;52.530;13.390;2023-02-01T10:00:16;3.80;;;1.20;;
19727;SDS011;10015;52.530;13.390;2023-02-01T10:02:50;3.20;;;1.17;;
19727;SDS011;10015;52.530;13.390;2023-02-01T10:05:22;4.07;;;1.00;;
19727;SDS011;10015;52.530;13.390;2023-02-01T10:08:15;4.50;;;1.20;;
19727;SDS011;10015;52.530;13.390;2023-02-01T10:10:58;3.23;;;0.90;;
19727;SDS011;10015;52.530;13.390;2023-02-01T10:13:43;4.60;;;1.00;;
19727;SDS011;10015;52.530;13.390;2023-02-01T10:27:36;16.80;;;4.93;;
19727;SDS011;10015;52.530;13.390;2023-02-01T10:29:47;10.13;;;1.97;;
19727;SDS011;10015;52.530;13.390;2023-02-01T10:32:24;5.30;;;1.30;;
19727;SDS011;10015;52.530;13.390;2023-02-01T10:35:08;5.00;;;1.10;;
19727;SDS011;10015;52.530;13.390;2023-02-01T10:37:41;6.77;;;1.30;;
19727;SDS011;10015;52.530;13.390;2023-02-01T10:40:25;5.07;;;1.00;;
19727;SDS011;10015;52.530;13.390;2023-02-01T10:42:53;4.03;;;1.57;;
19727;SDS011;10015;52.530;13.390;2023-02-01T10:45:23;5.80;;;1.30;;
19727;SDS011;10015;52.530;13.390;2023-02-01T10:47:52;6.20;;;1.50;;
19727;SDS011;10015;52.530;13.390;2023-02-01T10:53:05;4.53;;;1.10;;
19727;SDS011;10015;52.530;13.390;2023-02-01T10:55:40;4.63;;;1.20;;
19727;SDS011;10015;52.530;13.390;2023-02-01T10:58:19;7.00;;;1.20;;
19727;SDS011;10015;52.530;13.390;2023-02-01T11:00:58;5.03;;;1.17;;
19727;SDS011;10015;52.530;13.390;2023-02-01T11:03:34;3.37;;;1.33;;
19727;SDS011;10015;52.530;13.390;2023-02-01T11:06:09;3.17;;;1.10;;
19727;SDS011;10015;52.530;13.390;2023-02-01T11:08:41;6.70;;;1.40;;
19727;SDS011;10015;52.530;13.390;2023-02-01T11:11:12;9.70;;;1.50;;
19727;SDS011;10015;52.530;13.390;2023-02-01T11:13:38;6.23;;;1.60;;
19727;SDS011;10015;52.530;13.390;2023-02-01T11:16:05;3.53;;;1.13;;
19727;SDS011;10015;52.530;13.390;2023-02-01T11:18:37;3.67;;;1.33;;
19727;SDS011;10015;52.530;13.390;2023-02-01T11:21:05;7.80;;;1.40;;
19727;SDS011;10015;52.530;13.390;2023-02-01T11:23:32;4.43;;;1.33;;
19727;SDS011;10015;52.530;13.390;2023-02-01T11:26:10;3.60;;;1.10;;
19727;SDS011;10015;52.530;13.390;2023-02-01T11:28:40;5.97;;;1.43;;
19727;SDS011;10015;52.530;13.390;2023-02-01T11:31:16;4.80;;;1.40;;
19727;SDS011;10015;52.530;13.390;2023-02-01T11:33:51;8.57;;;1.43;;
19727;SDS011;10015;52.530;13.390;2023-02-01T11:36:21;7.03;;;1.67;;
19727;SDS011;10015;52.530;13.390;2023-02-01T11:38:54;8.83;;;1.70;;
19727;SDS011;10015;52.530;13.390;2023-02-01T11:41:40;9.07;;;1.60;;
19727;SDS011;10015;52.530;13.390;2023-02-01T11:44:23;7.80;;;2.40;;
19727;SDS011;10015;52.530;13.390;2023-02-01T11:49:58;10.13;;;1.73;;
19727;SDS011;10015;52.530;13.390;2023-02-01T12:11:21;9.43;;;1.57;;
19727;SDS011;10015;52.530;13.390;2023-02-01T12:17:30;7.80;;;1.67;;
19727;SDS011;10015;52.530;13.390;2023-02-01T12:20:21;7.33;;;1.40;;
19727;SDS011;10015;52.530;13.390;2023-02-01T12:25:34;6.07;;;1.40;;
19727;SDS011;10015;52.530;13.390;2023-02-01T12:31:01;10.37;;;1.60;;
19727;SDS011;10015;52.530;13.390;2023-02-01T12:44:10;12.43;;;3.10;;
19727;SDS011;10015;52.530;13.390;2023-02-01T12:46:50;11.47;;;3.30;;
19727;SDS011;10015;52.530;13.390;2023-02-01T12:58:18;8.63;;;1.63;;
19727;SDS011;10015;52.530;13.390;2023-02-01T13:03:36;7.27;;;1.80;;
19727;SDS011;10015;52.530;13.390;2023-02-01T13:06:20;8.47;;;1.60;;
19727;SDS011;10015;52.530;13.390;2023-02-01T13:11:43;8.87;;;1.53;;
19727;SDS011;10015;52.530;13.390;2023-02-01T13:16:57;11.47;;;1.70;;
19727;SDS011;10015;52.530;13.390;2023-02-01T13:19:29;14.60;;;2.20;;
19727;SDS011;10015;52.530;13.390;2023-02-01T13:22:07;11.23;;;1.70;;
19727;SDS011;10015;52.530;13.390;2023-02-01T13:24:52;6.20;;;1.63;;
19727;SDS011;10015;52.530;13.390;2023-02-01T13:27:23;12.43;;;2.10;;
19727;SDS011;10015;52.530;13.390;2023-02-01T13:30:04;5.97;;;1.53;;
19727;SDS011;10015;52.530;13.390;2023-02-01T13:35:42;6.70;;;1.27;;
19727;SDS011;10015;52.530;13.390;2023-02-01T13:44:39;6.93;;;1.90;;
19727;SDS011;10015;52.530;13.390;2023-02-01T13:47:16;8.17;;;1.50;;
19727;SDS011;10015;52.530;13.390;2023-02-01T13:49:54;16.73;;;3.70;;
19727;SDS011;10015;52.530;13.390;2023-02-01T13:52:32;12.80;;;2.60;;
19727;SDS011;10015;52.530;13.390;2023-02-01T13:55:25;23.00;;;8.17;;
19727;SDS011;10015;52.530;13.390;2023-02-01T13:58:28;6.87;;;1.93;;
19727;SDS011;10015;52.530;13.390;2023-02-01T14:00:49;7.43;;;1.70;;
19727;SDS011;10015;52.530;13.390;2023-02-01T14:03:17;7.00;;;2.20;;
19727;SDS011;10015;52.530;13.390;2023-02-01T14:10:55;6.70;;;1.53;;
19727;SDS011;10015;52.530;13.390;2023-02-01T14:13:32;10.07;;;1.50;;
19727;SDS011;10015;52.530;13.390;2023-02-01T14:23:44;8.60;;;1.83;;
19727;SDS011;10015;52.530;13.390;2023-02-01T14:26:16;6.37;;;1.60;;
19727;SDS011;10015;52.530;13.390;2023-02-01T14:37:34;11.90;;;2.30;;
19727;SDS011;10015;52.530;13.390;2023-02-01T14:40:04;8.27;;;1.93;;
19727;SDS011;10015;52.530;13.390;2023-02-01T14:47:50;10.63;;;2.07;;
19727;SDS011;10015;52.530;13.390;2023-02-01T14:55:40;9.67;;;1.80;;
19727;SDS011;10015;52.530;13.390;2023-02-01T15:00:52;5.37;;;1.60;;
19727;SDS011;10015;52.530;13.390;2023-02-01T15:06:32;8.57;;;1.90;;
19727;SDS011;10015;52.530;13.390;2023-02-01T15:11:54;11.37;;;1.93;;
19727;SDS011;10015;52.530;13.390;2023-02-01T15:14:31;8.63;;;2.20;;
19727;SDS011;10015;52.530;13.390;2023-02-01T15:20:03;5.80;;;1.50;;
19727;SDS011;10015;52.530;13.390;2023-02-01T15:22:38;7.23;;;1.50;;
19727;SDS011;10015;52.530;13.390;2023-02-01T15:25:04;4.93;;;1.40;;
19727;SDS011;10015;52.530;13.390;2023-02-01T15:27:32;2.63;;;1.10;;
19727;SDS011;10015;52.530;13.390;2023-02-01T15:30:08;4.67;;;1.00;;
19727;SDS011;10015;52.530;13.390;2023-02-01T15:32:46;6.13;;;1.30;;
19727;SDS011;10015;52.530;13.390;2023-02-01T15:40:53;3.53;;;1.13;;
19727;SDS011;10015;52.530;13.390;2023-02-01T15:43:34;3.20;;;0.90;;
19727;SDS011;10015;52.530;13.390;2023-02-01T15:46:08;2.57;;;0.60;;
19727;SDS011;10015;52.530;13.390;2023-02-01T15:48:42;1.70;;;0.90;;
19727;SDS011;10015;52.530;13.390;2023-02-01T15:51:19;1.30;;;0.80;;
19727;SDS011;10015;52.530;13.390;2023-02-01T15:53:55;3.30;;;0.90;;
19727;SDS011;10015;52.530;13.390;2023-02-01T15:56:27;0.70;;;0.70;;
19727;SDS011;10015;52.530;13.390;2023-02-01T15:59:01;2.40;;;0.80;;
19727;SDS011;10015;52.530;13.390;2023-02-01T16:01:30;1.57;;;0.73;;
19727;SDS011;10015;52.530;13.390;2023-02-01T16:04:21;4.43;;;0.83;;
19727;SDS011;10015;52.530;13.390;2023-02-01T16:09:35;3.50;;;0.80;;
19727;SDS011;10015;52.530;13.390;2023-02-01T16:12:33;1.17;;;0.70;;
19727;SDS011;10015;52.530;13.390;2023-02-01T16:15:03;1.63;;;0.60;;
19727;SDS011;10015;52.530;13.390;2023-02-01T16:17:30;0.83;;;0.70;;
19727;SDS011;10015;52.530;13.390;2023-02-01T16:19:56;1.07;;;0.50;;
19727;SDS011;10015;52.530;13.390;2023-02-01T16:22:23;1.03;;;0.60;;
19727;SDS011;10015;52.530;13.390;2023-02-01T16:24:49;0.80;;;0.57;;
19727;SDS011;10015;52.530;13.390;2023-02-01T16:27:15;0.50;;;0.50;;
19727;SDS011;10015;52.530;13.390;2023-02-01T16:29:41;0.90;;;0.63;;
19727;SDS011;10015;52.530;13.390;2023-02-01T16:32:15;0.60;;;0.60;;
19727;SDS011;10015;52.530;13.390;2023-02-01T16:34:44;1.47;;;0.73;;
19727;SDS011;10015;52.530;13.390;2023-02-01T16:37:12;1.43;;;0.70;;
19727;SDS011;10015;52.530;13.390;2023-02-01T16:39:40;0.87;;;0.57;;
19727;SDS011;10015;52.530;13.390;2023-02-01T16:42:12;0.77;;;0.50;;
19727;SDS011;10015;52.530;13.390;2023-02-01T16:44:40;0.87;;;0.60;;
19727;SDS011;10015;52.530;13.390;2023-02-01T16:47:16;1.23;;;0.63;;
19727;SDS011;10015;52.530;13.390;2023-02-01T16:49:45;0.93;;;0.53;;
19727;SDS011;10015;52.530;13.390;2023-02-01T16:52:15;1.33;;;0.40;;
19727;SDS011;10015;52.530;13.390;2023-02-01T16:54:46;1.10;;;0.60;;
19727;SDS011;10015;52.530;13.390;2023-02-01T16:57:13;9.77;;;4.47;;
19727;SDS011;10015;52.530;13.390;2023-02-01T16:59:41;4.47;;;1.80;;
19727;SDS011;10015;52.530;13.390;2023-02-01T17:02:10;15.07;;;4.90;;
19727;SDS011;10015;52.530;13.390;2023-02-01T17:04:38;2.17;;;1.10;;
19727;SDS011;10015;52.530;13.390;2023-02-01T17:07:04;2.13;;;0.77;;
19727;SDS011;10015;52.530;13.390;2023-02-01T17:09:35;1.23;;;0.80;;
19727;SDS011;10015;52.530;13.390;2023-02-01T17:12:02;1.97;;;1.10;;
19727;SDS011;10015;52.530;13.390;2023-02-01T17:14:30;0.80;;;0.70;;
19727;SDS011;10015;52.530;13.390;2023-02-01T17:16:59;2.90;;;0.90;;
19727;SDS011;10015;52.530;13.390;2023-02-01T17:19:26;4.00;;;1.00;;
19727;SDS011;10015;52.530;13.390;2023-02-01T17:21:52;2.50;;;0.93;;
19727;SDS011;10015;52.530;13.390;2023-02-01T17:24:25;2.87;;;0.83;;
19727;SDS011;10015;52.530;13.390;2023-02-01T17:26:59;1.07;;;0.70;;
19727;SDS011;10015;52.530;13.390;2023-02-01T17:29:25;4.13;;;1.10;;
19727;SDS011;10015;52.530;13.390;2023-02-01T17:31:52;1.67;;;1.20;;
19727;SDS011;10015;52.530;13.390;2023-02-01T17:34:19;4.67;;;1.23;;
19727;SDS011;10015;52.530;13.390;2023-02-01T17:36:46;2.57;;;1.00;;
19727;SDS011;10015;52.530;13.390;2023-02-01T17:39:13;2.73;;;1.00;;
19727;SDS011;10015;52.530;13.390;2023-02-01T17:41:59;2.87;;;1.00;;
19727;SDS011;10015;52.530;13.390;2023-02-01T17:44:26;2.93;;;1.10;;
19727;SDS011;10015;52.530;13.390;2023-02-01T17:46:52;3.53;;;1.00;;
19727;SDS011;10015;52.530;13.390;2023-02-01T17:49:18;6.33;;;1.13;;
19727;SDS011;10015;52.530;13.390;2023-02-01T17:51:44;4.20;;;1.37;;
19727;SDS011;10015;52.530;13.390;2023-02-01T17:54:13;3.33;;;1.30;;
19727;SDS011;10015;52.530;13.390;2023-02-01T17:56:44;4.53;;;1.00;;
19727;SDS011;10015;52.530;13.390;2023-02-01T17:59:13;6.83;;;1.23;;
19727;SDS011;10015;52.530;13.390;2023-02-01T18:01:40;3.63;;;1.40;;
19727;SDS011;10015;52.530;13.390;2023-02-01T18:04:12;5.63;;;1.37;;
19727;SDS011;10015;52.530;13.390;2023-02-01T18:06:42;6.87;;;1.70;;
19727;SDS011;10015;52.530;13.390;2023-02-01T18:09:09;4.10;;;1.30;;
19727;SDS011;10015;52.530;13.390;2023-02-01T18:11:35;8.60;;;1.50;;
19727;SDS011;10015;52.530;13.390;2023-02-01T18:14:01;1.33;;;1.03;;
19727;SDS011;10015;52.530;13.390;2023-02-01T18:16:29;3.50;;;1.40;;
19727;SDS011;10015;52.530;13.390;2023-02-01T18:18:56;7.13;;;1.20;;
19727;SDS011;10015;52.530;13.390;2023-02-01T18:21:27;6.57;;;2.47;;
19727;SDS011;10015;52.530;13.390;2023-02-01T18:24:03;12.77;;;5.80;;
19727;SDS011;10015;52.530;13.390;2023-02-01T18:26:29;7.50;;;3.27;;
19727;SDS011;10015;52.530;13.390;2023-02-01T18:28:55;12.13;;;5.20;;
19727;SDS011;10015;52.530;13.390;2023-02-01T18:31:22;3.43;;;1.43;;
19727;SDS011;10015;52.530;13.390;2023-02-01T18:33:50;7.30;;;1.50;;
19727;SDS011;10015;52.530;13.390;2023-02-01T18:36:18;5.87;;;1.30;;
19727;SDS011;10015;52.530;13.390;2023-02-01T18:38:44;5.40;;;1.60;;
19727;SDS011;10015;52.530;13.390;2023-02-01T18:41:14;4.77;;;1.27;;
19727;SDS011;10015;52.530;13.390;2023-02-01T18:43:42;3.47;;;1.30;;
19727;SDS011;10015;52.530;13.390;2023-02-01T18:46:11;3.33;;;1.20;;
19727;SDS011;10015;52.530;13.390;2023-02-01T18:48:38;5.33;;;1.37;;
19727;SDS011;10015;52.530;13.390;2023-02-01T18:51:11;7.80;;;1.43;;
19727;SDS011;10015;52.530;13.390;2023-02-01T18:53:41;7.20;;;1.27;;
19727;SDS011;10015;52.530;13.390;2023-02-01T18:56:11;7.93;;;1.67;;
19727;SDS011;10015;52.530;13.390;2023-02-01T18:58:38;5.80;;;1.20;;
19727;SDS011;10015;52.530;13.390;2023-02-01T19:01:07;6.43;;;1.30;;
19727;SDS011;10015;52.530;13.390;2023-02-01T19:03:37;3.47;;;1.20;;
19727;SDS011;10015;52.530;13.390;2023-02-01T19:06:04;3.37;;;1.60;;
19727;SDS011;10015;52.530;13.390;2023-02-01T19:08:30;5.80;;;1.03;;
19727;SDS011;10015;52.530;13.390;2023-02-01T19:10:56;5.97;;;1.40;;
19727;SDS011;10015;52.530;13.390;2023-02-01T19:13:22;5.47;;;1.30;;
19727;SDS011;10015;52.530;13.390;2023-02-01T19:15:50;3.90;;;1.40;;
19727;SDS011;10015;52.530;13.390;2023-02-01T19:18:16;6.57;;;1.53;;
19727;SDS011;10015;52.530;13.390;2023-02-01T19:20:45;4.23;;;1.30;;
19727;SDS011;10015;52.530;13.390;2023-02-01T19:23:15;5.80;;;1.70;;
19727;SDS011;10015;52.530;13.390;2023-02-01T19:25:43;6.13;;;1.50;;
19727;SDS011;10015;52.530;13.390;2023-02-01T19:28:10;5.13;;;1.23;;
19727;SDS011;10015;52.530;13.390;2023-02-01T19:30:36;5.47;;;1.73;;
19727;SDS011;10015;52.530;13.390;2023-02-01T19:33:02;6.77;;;1.73;;
19727;SDS011;10015;52.530;13.390;2023-02-01T19:35:28;7.43;;;1.60;;
19727;SDS011;10015;52.530;13.390;2023-02-01T19:37:55;7.73;;;1.43;;
19727;SDS011;10015;52.530;13.390;2023-02-01T19:40:22;7.17;;;1.43;;
19727;SDS011;10015;52.530;13.390;2023-02-01T19:42:50;6.10;;;2.00;;
19727;SDS011;10015;52.530;13.390;2023-02-01T19:45:18;8.47;;;2.60;;
19727;SDS011;10015;52.530;13.390;2023-02-01T19:47:44;8.53;;;1.93;;
19727;SDS011;10015;52.530;13.390;2023-02-01T19:50:14;6.30;;;1.33;;
19727;SDS011;10015;52.530;13.390;2023-02-01T19:52:41;6.40;;;1.13;;
19727;SDS011;10015;52.530;13.390;2023-02-01T19:55:07;4.10;;;1.40;;
19727;SDS011;10015;52.530;13.390;2023-02-01T19:57:34;4.70;;;1.10;;
19727;SDS011;10015;52.530;13.390;2023-02-01T20:00:01;10.10;;;1.60;;
19727;SDS011;10015;52.530;13.390;2023-02-01T20:02:29;12.03;;;3.00;;
19727;SDS011;10015;52.530;13.390;2023-02-01T20:04:56;13.97;;;2.97;;
19727;SDS011;10015;52.530;13.390;2023-02-01T20:07:22;13.73;;;3.40;;
19727;SDS011;10015;52.530;13.390;2023-02-01T20:09:48;18.87;;;5.53;;
19727;SDS011;10015;52.530;13.390;2023-02-01T20:12:14;10.07;;;2.30;;
19727;SDS011;10015;52.530;13.390;2023-02-01T20:14:40;7.87;;;1.70;;
19727;SDS011;10015;52.530;13.390;2023-02-01T20:17:07;6.33;;;1.50;;
19727;SDS011;10015;52.530;13.390;2023-02-01T20:19:33;10.27;;;1.87;;
19727;SDS011;10015;52.530;13.390;2023-02-01T20:22:00;7.60;;;1.47;;
19727;SDS011;10015;52.530;13.390;2023-02-01T20:24:26;9.23;;;1.50;;
19727;SDS011;10015;52.530;13.390;2023-02-01T20:26:52;5.93;;;1.77;;
19727;SDS011;10015;52.530;13.390;2023-02-01T20:29:19;10.10;;;1.93;;
19727;SDS011;10015;52.530;13.390;2023-02-01T20:31:45;9.20;;;1.63;;
19727;SDS011;10015;52.530;13.390;2023-02-01T20:34:11;9.87;;;1.60;;
19727;SDS011;10015;52.530;13.390;2023-02-01T20:36:38;5.63;;;1.60;;
19727;SDS011;10015;52.530;13.390;2023-02-01T20:39:05;10.30;;;1.80;;
19727;SDS011;10015;52.530;13.390;2023-02-01T20:41:31;9.63;;;1.80;;
19727;SDS011;10015;52.530;13.390;2023-02-01T20:43:57;10.07;;;1.50;;
19727;SDS011;10015;52.530;13.390;2023-02-01T20:46:24;12.13;;;1.53;;
19727;SDS011;10015;52.530;13.390;2023-02-01T20:48:50;10.40;;;1.30;;
19727;SDS011;10015;52.530;13.390;2023-02-01T20:51:17;8.53;;;1.67;;
19727;SDS011;10015;52.530;13.390;2023-02-01T20:53:45;14.03;;;1.60;;
19727;SDS011;10015;52.530;13.390;2023-02-01T20:56:13;6.23;;;1.43;;
19727;SDS011;10015;52.530;13.390;2023-02-01T20:58:40;12.07;;;1.50;;
19727;SDS011;10015;52.530;13.390;2023-02-01T21:01:07;11.47;;;1.60;;
19727;SDS011;10015;52.530;13.390;2023-02-01T21:03:33;11.57;;;1.47;;
19727;SDS011;10015;52.530;13.390;2023-02-01T21:06:00;7.43;;;1.80;;
19727;SDS011;10015;52.530;13.390;2023-02-01T21:08:28;4.57;;;1.37;;
19727;SDS011;10015;52.530;13.390;2023-02-01T21:11:02;11.00;;;1.83;;
19727;SDS011;10015;52.530;13.390;2023-02-01T21:13:32;5.10;;;1.27;;
19727;SDS011;10015;52.530;13.390;2023-02-01T21:16:06;4.30;;;1.00;;
19727;SDS011;10015;52.530;13.390;2023-02-01T21:18:35;4.77;;;1.17;;
19727;SDS011;10015;52.530;13.390;2023-02-01T21:21:09;7.90;;;1.20;;
19727;SDS011;10015;52.530;13.390;2023-02-01T21:23:37;5.53;;;1.20;;
19727;SDS011;10015;52.530;13.390;2023-02-01T21:26:24;8.70;;;1.50;;
19727;SDS011;10015;52.530;13.390;2023-02-01T21:28:53;8.37;;;1.63;;
19727;SDS011;10015;52.530;13.390;2023-02-01T21:31:20;15.03;;;1.73;;
19727;SDS011;10015;52.530;13.390;2023-02-01T21:33:50;6.77;;;1.50;;
19727;SDS011;10015;52.530;13.390;2023-02-01T21:36:16;8.10;;;1.43;;
19727;SDS011;10015;52.530;13.390;2023-02-01T21:38:50;5.27;;;1.67;;
19727;SDS011;10015;52.530;13.390;2023-02-01T21:41:18;6.20;;;1.50;;
19727;SDS011;10015;52.530;13.390;2023-02-01T21:44:04;9.70;;;1.20;;
19727;SDS011;10015;52.530;13.390;2023-02-01T21:46:30;5.37;;;1.43;;
19727;SDS011;10015;52.530;13.390;2023-02-01T21:48:56;6.93;;;0.90;;
19727;SDS011;10015;52.530;13.390;2023-02-01T21:51:22;9.67;;;1.50;;
19727;SDS011;10015;52.530;13.390;2023-02-01T21:53:48;6.30;;;1.27;;
19727;SDS011;10015;52.530;13.390;2023-02-01T21:56:14;14.20;;;2.10;;
19727;SDS011;10015;52.530;13.390;2023-02-01T21:58:41;10.73;;;1.53;;
19727;SDS011;10015;52.530;13.390;2023-02-01T22:01:07;6.33;;;1.20;;
19727;SDS011;10015;52.530;13.390;2023-02-01T22:03:32;9.57;;;1.37;;
19727;SDS011;10015;52.530;13.390;2023-02-01T22:05:58;6.20;;;1.23;;
19727;SDS011;10015;52.530;13.390;2023-02-01T22:08:25;13.80;;;4.10;;
19727;SDS011;10015;52.530;13.390;2023-02-01T22:10:51;10.63;;;2.80;;
19727;SDS011;10015;52.530;13.390;2023-02-01T22:13:17;6.23;;;1.63;;
19727;SDS011;10015;52.530;13.390;2023-02-01T22:15:43;7.20;;;1.10;;